Time;durP1;ratioP1;P1;durP2;ratioP2;P2;SDS_P1;SDS_P2;PMS_P1;PMS_P2;Temp;Humidity;BMP_temperature;BMP_pressure;BME280_temperature;BME280_humidity;BME280_pressure;Samples;Min_cycle;Max_cycle;Signal;HPM_P1;HPM_P2
2022/05/02 00:01:22;;;;;;;20.55;12.65;;;11.20;59.80;;;;;;5116725;28;20035;-67
2022/05/02 00:03:47;;;;;;;21.35;12.18;;;11.20;60.00;;;;;;5116728;28;20032;-67
2022/05/02 00:06:13;;;;;;;20.48;12.73;;;11.20;60.00;;;;;;5116607;28;20048;-67
2022/05/02 00:08:38;;;;;;;22.77;13.30;;;11.10;60.10;;;;;;5116572;28;20070;-67
2022/05/02 00:11:04;;;;;;;20.77;13.18;;;11.10;60.10;;;;;;5116562;28;20027;-67
2022/05/02 00:13:31;;;;;;;21.38;11.95;;;10.90;60.60;;;;;;5116491;28;20475;-67
2022/05/02 00:15:57;;;;;;;23.52;12.90;;;11.00;60.50;;;;;;5116591;28;20084;-67
2022/05/02 00:18:23;;;;;;;21.98;13.30;;;11.00;60.30;;;;;;5098510;28;20032;-67
2022/05/02 00:20:49;;;;;;;21.58;12.50;;;10.90;60.40;;;;;;5098455;28;20035;-67
2022/05/02 00:23:14;;;;;;;22.25;12.38;;;10.80;60.80;;;;;;5116337;28;20036;-67
2022/05/02 00:25:40;;;;;;;21.33;12.70;;;10.70;61.00;;;;;;5116225;28;20030;-67
2022/05/02 00:28:10;;;;;;;20.65;12.30;;;10.70;61.10;;;;;;5116169;28;20016;-67
2022/05/02 00:30:36;;;;;;;20.00;12.88;;;10.50;61.40;;;;;;5098118;28;20059;-67
2022/05/02 00:33:01;;;;;;;23.55;13.32;;;10.60;61.70;;;;;;5116149;28;20047;-67
2022/05/02 00:35:27;;;;;;;21.00;12.70;;;10.70;61.50;;;;;;5116129;28;20024;-67
2022/05/02 00:37:53;;;;;;;21.48;13.18;;;10.80;61.10;;;;;;5116042;28;20028;-67
2022/05/02 00:40:18;;;;;;;21.05;12.80;;;10.80;60.90;;;;;;5116001;28;20052;-67
2022/05/02 00:42:45;;;;;;;24.27;12.45;;;10.90;60.60;;;;;;5115955;28;20033;-67
2022/05/02 00:45:14;;;;;;;20.88;12.75;;;10.90;60.40;;;;;;5098034;28;20020;-67
2022/05/02 00:47:40;;;;;;;21.23;12.38;;;10.90;60.40;;;;;;5115797;28;20028;-67
2022/05/02 00:50:08;;;;;;;23.90;13.27;;;10.90;60.50;;;;;;5097886;28;20087;-67
2022/05/02 00:52:34;;;;;;;18.67;12.68;;;11.00;60.60;;;;;;5115779;28;20016;-67
2022/05/02 00:55:02;;;;;;;21.50;12.88;;;10.90;60.50;;;;;;5115741;28;20021;-67
2022/05/02 00:57:29;;;;;;;21.80;12.70;;;10.90;60.50;;;;;;5115677;28;20028;-67
2022/05/02 00:59:54;;;;;;;22.55;12.35;;;10.80;60.80;;;;;;5115589;28;20020;-67
2022/05/02 01:02:20;;;;;;;21.27;12.60;;;10.70;61.10;;;;;;5115579;28;20032;-67
2022/05/02 01:04:46;;;;;;;18.77;12.35;;;10.70;61.00;;;;;;5115515;28;20032;-67
2022/05/02 01:07:12;;;;;;;19.63;12.35;;;10.80;60.80;;;;;;5115404;28;20032;-67
2022/05/02 01:09:41;;;;;;;24.80;12.98;;;10.70;60.80;;;;;;5115453;28;20076;-67
2022/05/02 01:12:26;;;;;;;22.38;12.93;;;10.60;60.90;;;;;;5115417;28;20051;-67
2022/05/02 01:14:54;;;;;;;24.83;12.32;;;10.60;61.20;;;;;;5115493;28;20024;-67
2022/05/02 01:17:20;;;;;;;19.98;11.75;;;10.60;61.00;;;;;;5115316;28;20050;-67
2022/05/02 01:19:47;;;;;;;21.80;12.27;;;10.60;61.00;;;;;;5115219;28;20024;-67
2022/05/02 01:22:12;;;;;;;20.90;12.25;;;10.60;60.90;;;;;;5115206;28;20028;-67
2022/05/02 01:24:39;;;;;;;20.90;12.48;;;10.50;60.90;;;;;;5115157;28;20085;-67
2022/05/02 01:27:06;;;;;;;20.08;11.88;;;10.50;60.90;;;;;;5115006;28;20031;-67
2022/05/02 01:29:33;;;;;;;21.17;12.23;;;10.50;60.90;;;;;;5114966;28;20027;-67
2022/05/02 01:32:06;;;;;;;22.88;12.75;;;10.40;61.30;;;;;;5114820;28;20048;-67
2022/05/02 01:34:36;;;;;;;22.98;12.85;;;10.40;61.50;;;;;;5114961;28;20076;-67
2022/05/02 01:37:03;;;;;;;21.65;12.93;;;10.40;61.70;;;;;;5114943;28;20035;-67
2022/05/02 01:39:29;;;;;;;20.75;12.05;;;10.30;62.20;;;;;;5114858;28;20024;-67
2022/05/02 01:41:58;;;;;;;21.23;12.07;;;10.20;62.40;;;;;;5114793;28;20043;-67
2022/05/02 01:44:24;;;;;;;23.60;13.25;;;10.30;62.20;;;;;;5114751;28;20020;-67
2022/05/02 01:46:51;;;;;;;23.20;13.43;;;10.30;63.20;;;;;;5114656;28;20038;-68
2022/05/02 01:49:16;;;;;;;24.77;12.57;;;10.30;62.60;;;;;;5114659;28;20046;-67
2022/05/02 01:51:42;;;;;;;20.60;11.82;;;10.40;62.30;;;;;;5114602;28;20024;-67
2022/05/02 01:54:08;;;;;;;19.63;12.18;;;10.40;62.00;;;;;;5114568;28;20089;-67
2022/05/02 01:56:33;;;;;;;21.75;12.30;;;10.40;61.90;;;;;;5114537;28;20115;-67
2022/05/02 01:58:59;;;;;;;23.40;12.90;;;10.40;61.70;;;;;;5114471;28;20036;-67
2022/05/02 02:01:24;;;;;;;21.75;12.60;;;10.40;61.60;;;;;;5114455;28;20024;-67
2022/05/02 02:03:50;;;;;;;22.50;12.75;;;10.40;61.60;;;;;;5096546;28;20443;-67
2022/05/02 02:06:16;;;;;;;22.88;12.40;;;10.30;61.70;;;;;;5114289;28;20024;-67
2022/05/02 02:08:42;;;;;;;22.48;12.38;;;10.30;62.20;;;;;;5096545;28;20043;-67
2022/05/02 02:11:10;;;;;;;21.75;12.23;;;10.20;62.20;;;;;;5114365;28;20028;-67
2022/05/02 02:13:37;;;;;;;23.92;12.93;;;9.90;62.50;;;;;;5114220;28;20040;-67
2022/05/02 02:16:09;;;;;;;22.10;12.75;;;9.80;63.10;;;;;;5114177;28;20051;-67
2022/05/02 02:18:36;;;;;;;19.40;11.48;;;9.70;63.20;;;;;;5114295;28;20020;-67
2022/05/02 02:21:02;;;;;;;21.13;11.98;;;9.70;63.50;;;;;;5114105;28;20020;-67
2022/05/02 02:23:28;;;;;;;23.88;12.80;;;9.60;63.40;;;;;;5095643;28;20036;-67
2022/05/02 02:25:53;;;;;;;20.83;11.82;;;9.80;63.20;;;;;;5113902;28;20053;-67
2022/05/02 02:28:19;;;;;;;21.58;12.38;;;9.90;62.90;;;;;;5113955;28;20028;-67
2022/05/02 02:30:45;;;;;;;23.05;12.73;;;9.90;62.80;;;;;;5113707;28;20052;-67
2022/05/02 02:33:11;;;;;;;23.17;12.93;;;9.90;62.80;;;;;;5113829;28;20050;-67
2022/05/02 02:35:37;;;;;;;22.30;13.40;;;9.90;63.10;;;;;;5095879;28;20020;-67
2022/05/02 02:38:03;;;;;;;23.42;13.32;;;9.80;63.20;;;;;;5113790;28;20194;-67
2022/05/02 02:40:30;;;;;;;21.70;12.05;;;9.90;63.10;;;;;;5113763;28;20099;-67
2022/05/02 02:42:56;;;;;;;23.67;13.10;;;9.90;62.90;;;;;;5113739;28;20024;-67
2022/05/02 02:45:22;;;;;;;23.95;12.48;;;9.80;62.80;;;;;;5113706;28;20028;-67
2022/05/02 02:47:48;;;;;;;22.27;13.10;;;9.70;63.10;;;;;;5113702;28;20032;-67
2022/05/02 02:50:14;;;;;;;25.20;13.40;;;9.70;63.10;;;;;;5113588;28;20024;-67
2022/05/02 02:52:39;;;;;;;23.45;13.18;;;9.70;63.10;;;;;;5113588;28;20077;-67
2022/05/02 02:55:05;;;;;;;23.52;13.18;;;9.70;63.00;;;;;;5113581;28;20024;-67
2022/05/02 02:57:31;;;;;;;21.83;13.00;;;9.70;63.10;;;;;;5113660;28;20030;-67
2022/05/02 02:59:57;;;;;;;20.13;12.20;;;9.70;63.30;;;;;;5113472;28;20032;-67
2022/05/02 03:02:23;;;;;;;19.70;12.25;;;9.60;63.10;;;;;;5113468;28;20088;-67
2022/05/02 03:07:34;;;;;;;21.70;12.25;;;9.40;63.00;;;;;;5113406;28;20039;-67
2022/05/02 03:10:00;;;;;;;22.10;12.30;;;9.20;63.90;;;;;;5113368;28;20399;-67
2022/05/02 03:12:25;;;;;;;22.83;12.30;;;9.10;64.00;;;;;;5113350;28;20087;-67
2022/05/02 03:14:51;;;;;;;24.60;12.57;;;8.90;64.30;;;;;;5113333;28;20039;-67
2022/05/02 03:17:17;;;;;;;25.15;12.70;;;8.80;64.50;;;;;;5113336;28;20043;-67
2022/05/02 03:19:42;;;;;;;23.27;12.52;;;8.90;64.80;;;;;;5113282;28;20024;-67
2022/05/02 03:22:08;;;;;;;24.60;13.13;;;9.00;64.70;;;;;;5113254;28;20064;-67
2022/05/02 03:24:34;;;;;;;25.90;12.68;;;9.00;64.60;;;;;;5113279;28;20032;-67
2022/05/02 03:27:00;;;;;;;22.67;12.48;;;9.10;64.70;;;;;;5113144;28;20082;-67
2022/05/02 03:29:25;;;;;;;23.10;13.13;;;9.10;64.60;;;;;;5113182;28;20402;-67
2022/05/02 03:31:51;;;;;;;26.40;12.95;;;9.10;64.30;;;;;;5113091;28;20095;-67
2022/05/02 03:34:17;;;;;;;21.60;12.80;;;9.20;64.10;;;;;;5114111;28;20028;-67
2022/05/02 03:36:42;;;;;;;25.60;13.43;;;9.10;64.30;;;;;;5099220;28;20043;-67
2022/05/02 03:39:08;;;;;;;25.10;13.18;;;9.10;64.40;;;;;;5117206;28;20079;-67
2022/05/02 03:41:34;;;;;;;24.05;12.40;;;9.20;64.40;;;;;;5117095;28;20028;-67
2022/05/02 03:43:59;;;;;;;23.05;12.40;;;9.20;64.30;;;;;;5117114;28;20020;-67
2022/05/02 03:46:25;;;;;;;24.30;13.25;;;9.20;64.20;;;;;;5116997;28;20478;-67
2022/05/02 03:48:51;;;;;;;23.08;12.65;;;9.10;64.40;;;;;;5117023;28;20032;-67
2022/05/02 03:51:18;;;;;;;20.08;12.32;;;9.10;64.50;;;;;;5117008;28;20103;-67
2022/05/02 03:53:43;;;;;;;20.77;11.82;;;9.00;64.50;;;;;;5117064;28;20050;-67
2022/05/02 03:56:09;;;;;;;22.95;13.00;;;9.00;64.20;;;;;;5116895;28;20040;-67
2022/05/02 03:58:35;;;;;;;20.73;12.63;;;9.00;64.00;;;;;;5116833;28;20028;-67
2022/05/02 04:01:01;;;;;;;21.90;12.15;;;9.00;64.90;;;;;;5098746;28;20039;-67
2022/05/02 04:03:27;;;;;;;23.95;12.57;;;8.90;64.40;;;;;;5116760;28;20035;-68
2022/05/02 04:05:52;;;;;;;20.17;12.18;;;8.90;64.40;;;;;;5116591;28;20032;-67
2022/05/02 04:08:18;;;;;;;21.77;11.43;;;9.00;64.10;;;;;;5116650;28;20054;-67
2022/05/02 04:10:44;;;;;;;25.48;13.05;;;8.80;64.00;;;;;;5116579;28;20035;-68
2022/05/02 04:13:10;;;;;;;20.15;11.95;;;8.70;64.10;;;;;;5116549;28;20050;-68
2022/05/02 04:15:36;;;;;;;20.35;11.50;;;8.60;64.30;;;;;;5116498;28;20047;-67
2022/05/02 04:18:02;;;;;;;20.05;12.63;;;8.50;64.60;;;;;;5116479;28;20032;-68
2022/05/02 04:20:28;;;;;;;22.05;13.43;;;8.40;64.90;;;;;;5116354;28;20032;-67
2022/05/02 04:22:53;;;;;;;24.98;12.38;;;8.50;64.70;;;;;;5116380;28;20050;-67
2022/05/02 04:25:19;;;;;;;23.67;12.85;;;8.60;64.90;;;;;;5116336;28;20053;-67
2022/05/02 04:27:45;;;;;;;21.40;12.05;;;8.70;65.00;;;;;;5116146;28;20028;-67
2022/05/02 04:30:11;;;;;;;23.50;12.63;;;8.60;64.90;;;;;;5116033;28;20073;-68
2022/05/02 04:32:38;;;;;;;21.60;12.60;;;8.60;64.90;;;;;;5116355;28;20024;-67
2022/05/02 04:35:05;;;;;;;24.80;12.77;;;8.60;64.80;;;;;;5098135;28;20031;-67
2022/05/02 04:37:30;;;;;;;23.20;12.55;;;8.60;64.60;;;;;;5116015;28;20028;-68
2022/05/02 04:39:56;;;;;;;19.30;11.38;;;8.70;64.50;;;;;;5116198;28;20034;-68
2022/05/02 04:42:22;;;;;;;25.08;13.13;;;8.70;64.40;;;;;;5115988;28;20028;-68
2022/05/02 04:44:48;;;;;;;21.25;12.32;;;8.70;64.40;;;;;;5115561;28;20039;-68
2022/05/02 04:47:13;;;;;;;22.00;12.10;;;8.60;64.80;;;;;;5115806;28;20036;-68
2022/05/02 04:49:39;;;;;;;23.13;13.00;;;8.60;65.00;;;;;;5115843;28;20036;-68
2022/05/02 04:52:05;;;;;;;31.88;13.27;;;8.50;65.10;;;;;;5098052;28;20032;-68
2022/05/02 04:54:31;;;;;;;26.73;13.20;;;8.30;65.50;;;;;;5115696;28;20065;-67
2022/05/02 04:56:56;;;;;;;22.80;12.38;;;8.30;66.20;;;;;;5115732;28;20088;-67
2022/05/02 04:59:22;;;;;;;23.52;13.68;;;8.30;66.40;;;;;;5115647;28;20036;-67
2022/05/02 05:01:47;;;;;;;24.15;13.10;;;8.40;66.20;;;;;;5115648;28;20024;-68
2022/05/02 05:04:13;;;;;;;23.70;13.57;;;8.40;66.50;;;;;;5097734;28;20060;-67
2022/05/02 05:06:39;;;;;;;22.67;13.20;;;8.50;66.60;;;;;;5115457;28;20028;-67
2022/05/02 05:09:04;;;;;;;24.80;13.38;;;8.40;66.60;;;;;;5115453;28;20028;-67
2022/05/02 05:11:53;;;;;;;25.40;14.52;;;8.40;67.10;;;;;;5097532;28;20024;-67
2022/05/02 05:17:48;;;;;;;23.58;13.77;;;8.50;67.90;;;;;;5115577;28;20145;-67
2022/05/02 05:20:18;;;;;;;26.85;13.90;;;8.50;68.00;;;;;;5115378;28;20055;-67
2022/05/02 05:23:40;;;;;;;22.05;13.20;;;8.50;68.90;;;;;;5115305;28;20083;-67
2022/05/02 05:26:31;;;;;;;24.40;14.07;;;8.50;69.00;;;;;;5053064;28;20036;-67
2022/05/02 05:29:24;;;;;;;30.40;15.65;;;8.50;69.10;;;;;;5115202;28;20016;-67
2022/05/02 05:32:15;;;;;;;28.73;15.35;;;8.60;69.30;;;;;;5106445;28;20044;-68
2022/05/02 05:34:59;;;;;;;27.50;15.07;;;8.80;69.40;;;;;;5106530;28;20063;-67
2022/05/02 05:37:43;;;;;;;28.63;15.43;;;8.90;69.40;;;;;;5114931;28;20028;-68
2022/05/02 05:40:26;;;;;;;28.33;16.27;;;9.10;69.70;;;;;;5114856;28;20035;-67
2022/05/02 05:43:11;;;;;;;28.48;15.95;;;9.10;69.90;;;;;;5114779;28;20032;-67
2022/05/02 05:45:49;;;;;;;27.85;15.45;;;9.20;69.60;;;;;;5114744;28;20035;-67
2022/05/02 05:48:39;;;;;;;27.05;15.90;;;9.40;69.60;;;;;;5114687;28;20088;-67
2022/05/02 05:51:10;;;;;;;27.25;15.10;;;9.50;69.80;;;;;;5114695;28;20012;-67
2022/05/02 05:54:08;;;;;;;28.95;15.27;;;9.60;69.60;;;;;;5114571;28;20034;-67
2022/05/02 05:56:42;;;;;;;28.98;14.90;;;9.60;69.60;;;;;;5113996;28;20153;-67
2022/05/02 05:59:27;;;;;;;28.85;15.80;;;9.70;69.70;;;;;;5114453;28;20028;-67
2022/05/02 06:02:01;;;;;;;26.45;15.25;;;9.70;69.90;;;;;;5114477;28;20028;-67
2022/05/02 06:04:30;;;;;;;27.88;15.60;;;9.70;69.60;;;;;;5114349;28;20032;-67
2022/05/02 06:06:58;;;;;;;27.85;16.10;;;9.80;69.40;;;;;;5114262;28;20080;-67
2022/05/02 06:09:28;;;;;;;28.65;16.38;;;9.80;69.30;;;;;;5114302;28;20016;-67
2022/05/02 06:11:57;;;;;;;30.80;16.35;;;9.80;69.30;;;;;;5114259;28;20040;-67
2022/05/02 06:14:27;;;;;;;30.83;16.48;;;9.90;69.20;;;;;;5114209;28;20020;-67
2022/05/02 06:19:39;;;;;;;29.30;16.63;;;10.00;69.20;;;;;;5114374;28;20039;-67
2022/05/02 06:22:05;;;;;;;27.55;16.48;;;10.10;69.30;;;;;;5114026;28;20024;-67
2022/05/02 06:24:33;;;;;;;29.55;16.95;;;10.10;69.40;;;;;;5113975;28;20028;-67
2022/05/02 06:27:01;;;;;;;27.92;16.23;;;10.20;69.60;;;;;;5113903;28;20039;-67
2022/05/02 06:29:28;;;;;;;29.85;17.75;;;10.20;69.70;;;;;;5113834;28;20035;-67
2022/05/02 06:31:55;;;;;;;29.20;16.00;;;10.30;69.70;;;;;;5095816;28;20040;-67
2022/05/02 06:34:25;;;;;;;30.52;16.88;;;10.40;69.70;;;;;;5113815;28;20027;-67
2022/05/02 06:36:53;;;;;;;34.20;16.70;;;10.50;69.60;;;;;;5113848;28;20027;-68
2022/05/02 06:39:28;;;;;;;27.85;16.30;;;10.50;69.50;;;;;;5113811;28;20034;-67
2022/05/02 06:41:59;;;;;;;31.65;16.85;;;10.60;69.80;;;;;;5113915;28;20059;-67
2022/05/02 06:45:02;;;;;;;28.30;17.27;;;10.70;69.90;;;;;;5095788;28;20028;-67
2022/05/02 06:47:34;;;;;;;28.60;16.10;;;10.80;69.70;;;;;;5113616;28;20035;-67
2022/05/02 06:50:03;;;;;;;26.45;16.30;;;10.90;70.10;;;;;;5113605;28;20032;-67
2022/05/02 06:52:47;;;;;;;32.40;16.42;;;11.00;69.80;;;;;;5113590;28;20020;-67
2022/05/02 06:55:33;;;;;;;26.25;15.25;;;11.10;69.40;;;;;;5113693;28;20028;-67
2022/05/02 06:58:40;;;;;;;28.02;15.55;;;11.10;69.40;;;;;;5113709;28;20028;-67
2022/05/02 07:01:12;;;;;;;25.92;14.57;;;11.20;69.70;;;;;;5042211;28;20109;-68
2022/05/02 07:04:02;;;;;;;28.65;15.77;;;11.30;69.10;;;;;;5113501;28;20069;-67
2022/05/02 07:06:50;;;;;;;27.98;16.52;;;11.40;68.80;;;;;;5113392;28;20024;-67
2022/05/02 07:09:27;;;;;;;22.40;13.23;;;11.60;68.80;;;;;;5113437;28;20028;-67
2022/05/02 07:12:05;;;;;;;22.23;11.70;;;11.70;68.70;;;;;;5113405;28;20027;-67
2022/05/02 07:14:52;;;;;;;18.65;11.02;;;11.80;67.30;;;;;;5113323;28;20047;-67
2022/05/02 07:17:35;;;;;;;19.30;11.23;;;11.90;66.70;;;;;;5113343;28;20052;-67
2022/05/02 07:20:01;;;;;;;16.20;10.52;;;12.10;66.20;;;;;;5113357;28;20050;-67
2022/05/02 07:22:34;;;;;;;18.13;11.00;;;12.20;65.30;;;;;;5113411;28;20024;-67
2022/05/02 07:25:08;;;;;;;17.48;9.98;;;12.30;65.20;;;;;;5113357;28;20036;-67
2022/05/02 07:27:49;;;;;;;16.02;9.65;;;12.40;63.90;;;;;;5113092;28;20024;-67
2022/05/02 07:30:19;;;;;;;17.50;9.02;;;12.40;63.70;;;;;;5113198;28;20077;-67
2022/05/02 07:32:44;;;;;;;17.35;9.73;;;12.60;63.00;;;;;;5113253;28;20091;-67
2022/05/02 07:35:13;;;;;;;16.05;8.85;;;12.70;62.70;;;;;;5113147;28;20051;-67
2022/05/02 07:37:42;;;;;;;16.88;10.18;;;12.80;62.50;;;;;;5113125;28;20039;-67
2022/05/02 07:40:12;;;;;;;13.63;8.90;;;12.90;62.70;;;;;;5113136;28;20024;-67
2022/05/02 07:42:39;;;;;;;17.25;9.68;;;13.00;62.20;;;;;;5113200;28;20024;-67
2022/05/02 07:45:09;;;;;;;14.80;9.50;;;13.00;62.20;;;;;;5113084;28;20020;-67
2022/05/02 07:47:36;;;;;;;18.67;9.30;;;13.10;61.90;;;;;;5113160;28;20112;-68
2022/05/02 07:50:03;;;;;;;17.00;9.20;;;13.20;61.40;;;;;;5113034;28;20117;-67
2022/05/02 07:52:31;;;;;;;16.13;9.00;;;13.30;61.00;;;;;;5112974;28;20016;-67
2022/05/02 07:55:00;;;;;;;16.35;8.88;;;13.30;60.70;;;;;;5112986;28;20043;-67
2022/05/02 07:57:27;;;;;;;17.08;8.32;;;13.40;60.80;;;;;;5094988;28;20032;-67
2022/05/02 07:59:59;;;;;;;12.70;7.82;;;13.50;60.80;;;;;;5112915;28;20024;-67
2022/05/02 08:02:25;;;;;;;11.32;7.05;;;13.60;60.10;;;;;;5112929;28;20024;-68
2022/05/02 08:04:53;;;;;;;13.82;8.18;;;13.70;59.50;;;;;;5112892;28;20020;-67
2022/05/02 08:07:21;;;;;;;12.07;7.15;;;13.80;59.00;;;;;;5112806;28;20035;-67
2022/05/02 08:09:47;;;;;;;15.60;8.10;;;13.90;59.00;;;;;;5112832;28;20043;-67
2022/05/02 08:12:50;;;;;;;13.93;7.53;;;14.00;58.90;;;;;;5112814;28;20024;-67
2022/05/02 08:15:34;;;;;;;11.52;7.13;;;14.10;58.50;;;;;;5028725;28;20036;-68
2022/05/02 08:18:14;;;;;;;12.48;6.95;;;14.20;58.00;;;;;;5112849;28;20039;-67
2022/05/02 08:21:15;;;;;;;12.48;7.05;;;14.20;56.90;;;;;;5114149;28;20083;-67
2022/05/02 08:27:16;;;;;;;9.27;6.15;;;14.50;57.40;;;;;;5116330;28;20042;-67
2022/05/02 08:29:51;;;;;;;9.50;6.88;;;14.50;55.40;;;;;;5116217;28;20046;-67
2022/05/02 08:32:32;;;;;;;9.80;6.63;;;14.50;55.40;;;;;;5116044;28;20040;-67
2022/05/02 08:35:03;;;;;;;9.40;5.85;;;14.60;55.40;;;;;;5116228;28;20027;-67
2022/05/02 08:38:05;;;;;;;12.20;6.97;;;14.70;54.70;;;;;;5098204;28;20363;-67
2022/05/02 08:40:33;;;;;;;9.55;6.10;;;14.90;53.80;;;;;;5116216;28;20024;-67
2022/05/02 08:43:28;;;;;;;9.68;6.15;;;14.90;54.40;;;;;;5115984;28;20038;-67
2022/05/02 08:46:08;;;;;;;11.20;6.10;;;15.00;54.10;;;;;;5115868;28;20467;-67
2022/05/02 08:52:24;;;;;;;9.15;6.38;;;15.20;52.90;;;;;;5116095;28;20035;-67
2022/05/02 08:55:26;;;;;;;11.07;6.90;;;15.20;53.30;;;;;;5115984;28;20024;-67
2022/05/02 08:58:37;;;;;;;10.00;6.63;;;15.30;51.90;;;;;;5115740;28;20028;-67
2022/05/02 09:01:06;;;;;;;9.38;6.07;;;15.30;51.60;;;;;;5076906;28;20069;-67
2022/05/02 09:03:59;;;;;;;11.40;7.25;;;15.40;52.80;;;;;;5115696;28;20043;-67
2022/05/02 09:07:00;;;;;;;10.23;6.40;;;15.50;51.80;;;;;;5115435;28;20024;-67
2022/05/02 09:09:59;;;;;;;14.35;7.07;;;15.60;50.70;;;;;;5115498;28;20054;-68
2022/05/02 09:12:49;;;;;;;9.30;6.63;;;15.60;51.60;;;;;;5097532;28;20501;-68
2022/05/02 09:15:39;;;;;;;10.18;7.03;;;15.70;52.00;;;;;;5115412;28;20031;-68
2022/05/02 09:19:04;;;;;;;10.63;7.00;;;15.80;51.90;;;;;;5115316;28;20028;-68
2022/05/02 09:21:41;;;;;;;11.48;7.30;;;16.00;51.20;;;;;;5078703;28;20040;-68
2022/05/02 09:24:13;;;;;;;13.13;7.43;;;16.00;51.00;;;;;;5115233;28;20032;-67
2022/05/02 09:26:57;;;;;;;14.55;8.00;;;16.20;50.40;;;;;;5115105;28;20032;-67
2022/05/02 09:29:58;;;;;;;13.05;8.60;;;16.20;50.60;;;;;;5114977;28;20024;-67
2022/05/02 09:33:07;;;;;;;12.18;7.90;;;16.40;48.90;;;;;;5060123;28;20048;-67
2022/05/02 09:35:53;;;;;;;15.43;9.10;;;16.40;48.00;;;;;;5114947;28;20048;-67
2022/05/02 09:38:26;;;;;;;12.20;7.72;;;16.40;48.80;;;;;;5114987;28;20044;-67
2022/05/02 09:41:34;;;;;;;13.45;8.18;;;16.50;48.80;;;;;;5114881;28;20083;-67
2022/05/02 09:50:52;;;;;;;14.93;9.60;;;16.80;48.00;;;;;;5114772;28;20031;-67
2022/05/02 09:53:39;;;;;;;12.65;8.63;;;16.90;45.90;;;;;;5096801;28;20028;-67
2022/05/02 09:56:38;;;;;;;13.27;9.27;;;17.00;47.70;;;;;;5114645;28;20079;-67
2022/05/02 09:59:28;;;;;;;16.80;9.18;;;17.10;46.00;;;;;;5114563;28;20035;-67
2022/05/02 10:02:07;;;;;;;16.73;9.65;;;17.00;45.10;;;;;;5114523;28;20024;-67
2022/05/02 10:05:03;;;;;;;14.50;9.30;;;16.90;46.30;;;;;;5114484;28;20107;-67
2022/05/02 10:07:29;;;;;;;19.00;11.70;;;16.90;46.70;;;;;;5114438;28;20039;-67
2022/05/02 10:09:58;;;;;;;18.00;10.75;;;17.00;45.90;;;;;;5114291;28;20028;-67
2022/05/02 10:12:36;;;;;;;14.85;9.70;;;17.10;46.00;;;;;;5114231;28;20020;-67
2022/05/02 10:15:26;;;;;;;16.77;10.25;;;17.20;44.70;;;;;;5114322;28;20012;-67
2022/05/02 10:17:58;;;;;;;14.15;9.15;;;17.20;44.90;;;;;;5114150;28;20051;-67
2022/05/02 10:20:37;;;;;;;16.05;9.52;;;17.40;46.30;;;;;;5114152;28;20066;-67
2022/05/02 10:23:25;;;;;;;15.85;9.38;;;17.50;46.10;;;;;;5114126;28;20023;-67
2022/05/02 10:26:06;;;;;;;14.50;9.43;;;17.60;46.60;;;;;;5114103;28;20026;-67
2022/05/02 10:28:50;;;;;;;12.73;9.15;;;17.70;46.20;;;;;;5113935;28;20024;-67
2022/05/02 10:31:27;;;;;;;14.60;10.77;;;17.80;45.20;;;;;;5113683;28;20091;-67
2022/05/02 10:33:54;;;;;;;15.32;10.27;;;17.80;42.50;;;;;;5113880;28;20032;-67
2022/05/02 10:36:27;;;;;;;16.02;9.88;;;17.60;42.90;;;;;;5113829;28;20050;-66
2022/05/02 10:39:01;;;;;;;13.48;9.25;;;17.50;43.80;;;;;;5113981;28;20021;-67
2022/05/02 10:41:30;;;;;;;16.27;9.52;;;17.40;44.60;;;;;;5113813;28;20053;-67
2022/05/02 10:44:04;;;;;;;15.10;10.18;;;17.50;45.20;;;;;;5113370;28;20024;-67
2022/05/02 10:46:33;;;;;;;13.95;9.20;;;17.50;43.60;;;;;;5113625;28;20028;-67
2022/05/02 10:49:14;;;;;;;16.17;9.60;;;17.50;44.70;;;;;;5113631;28;20027;-67
2022/05/02 10:52:09;;;;;;;12.38;9.38;;;17.70;45.00;;;;;;5113776;28;20513;-67
2022/05/02 10:55:02;;;;;;;13.93;9.52;;;17.80;45.30;;;;;;5091608;28;20036;-67
2022/05/02 10:57:38;;;;;;;12.38;9.20;;;18.00;44.80;;;;;;5113560;28;20024;-67
2022/05/02 11:00:09;;;;;;;14.48;9.65;;;18.10;43.90;;;;;;5113540;28;20053;-65
2022/05/02 11:02:56;;;;;;;16.90;9.88;;;18.10;44.50;;;;;;5113579;28;20020;-65
2022/05/02 11:05:27;;;;;;;14.57;10.20;;;18.20;44.70;;;;;;5113609;28;20031;-65
2022/05/02 11:08:18;;;;;;;17.63;11.80;;;18.40;43.70;;;;;;5113380;28;20048;-65
2022/05/02 11:11:13;;;;;;;14.02;9.55;;;18.30;43.40;;;;;;5113398;28;20034;-66
2022/05/02 11:14:00;;;;;;;14.57;9.75;;;18.30;43.10;;;;;;5112554;28;20042;-66
2022/05/02 11:16:31;;;;;;;17.40;10.18;;;18.40;43.20;;;;;;5113416;28;20083;-66
2022/05/02 11:22:34;;;;;;;14.70;9.65;;;18.60;43.40;;;;;;5113458;28;20042;-66
2022/05/02 11:25:17;;;;;;;13.48;9.65;;;18.70;43.40;;;;;;5113321;28;20039;-66
2022/05/02 11:28:09;;;;;;;13.82;9.68;;;18.90;43.10;;;;;;5113111;28;20107;-66
2022/05/02 11:31:01;;;;;;;14.23;10.70;;;19.00;42.10;;;;;;5113310;28;20031;-66
2022/05/02 11:33:38;;;;;;;14.48;10.40;;;18.80;41.30;;;;;;5113059;28;20109;-66
2022/05/02 11:36:09;;;;;;;14.85;10.05;;;18.60;41.60;;;;;;5113323;28;20066;-66
2022/05/02 11:38:59;;;;;;;15.75;9.88;;;18.60;42.30;;;;;;5113047;28;20020;-66
2022/05/02 11:41:29;;;;;;;14.48;10.25;;;18.70;41.30;;;;;;5095338;28;20032;-66
2022/05/02 11:44:11;;;;;;;14.68;10.00;;;18.70;40.80;;;;;;5113145;28;20042;-66
2022/05/02 11:46:55;;;;;;;15.98;10.43;;;18.60;42.50;;;;;;5113186;28;20020;-66
2022/05/02 11:49:26;;;;;;;16.60;10.38;;;18.60;41.50;;;;;;5113247;28;20024;-66
2022/05/02 11:51:53;;;;;;;16.38;10.18;;;18.50;41.90;;;;;;5113004;28;20028;-66
2022/05/02 11:54:28;;;;;;;15.02;10.32;;;18.40;41.70;;;;;;5095060;28;20040;-66
2022/05/02 11:57:21;;;;;;;13.60;9.32;;;18.40;42.20;;;;;;5116475;28;20066;-66
2022/05/02 12:00:07;;;;;;;15.82;9.13;;;18.60;43.50;;;;;;5116932;28;20079;-66
2022/05/02 12:02:53;;;;;;;14.82;9.85;;;18.90;43.00;;;;;;5116759;28;20035;-66
2022/05/02 12:05:25;;;;;;;13.90;9.90;;;19.20;42.60;;;;;;5116796;28;20020;-66
2022/05/02 12:07:53;;;;;;;14.15;9.93;;;19.30;41.70;;;;;;5116739;28;20035;-66
2022/05/02 12:10:20;;;;;;;15.00;9.52;;;19.20;40.00;;;;;;5116658;28;20018;-66
2022/05/02 12:12:50;;;;;;;12.85;9.60;;;19.20;41.10;;;;;;5116588;28;20013;-66
2022/05/02 12:15:17;;;;;;;16.05;10.68;;;19.30;41.90;;;;;;5116583;28;20020;-66
2022/05/02 12:17:52;;;;;;;12.70;9.52;;;19.60;41.30;;;;;;5116476;28;20038;-66
2022/05/02 12:20:42;;;;;;;16.40;10.18;;;19.80;41.20;;;;;;5116481;28;20032;-66
2022/05/02 12:23:17;;;;;;;14.65;10.00;;;20.00;40.80;;;;;;5116603;28;20091;-66
2022/05/02 12:25:49;;;;;;;15.68;10.63;;;20.20;41.50;;;;;;5116345;28;20028;-66
2022/05/02 12:28:16;;;;;;;15.40;10.52;;;20.20;40.00;;;;;;5116170;28;20035;-66
2022/05/02 12:30:42;;;;;;;13.18;10.27;;;20.20;39.40;;;;;;5116374;28;20023;-66
2022/05/02 12:33:08;;;;;;;15.52;10.02;;;20.10;39.60;;;;;;5116019;28;20052;-66
2022/05/02 12:35:37;;;;;;;16.70;10.60;;;20.00;40.70;;;;;;5116057;28;20052;-66
2022/05/02 12:38:24;;;;;;;14.65;9.57;;;19.90;40.00;;;;;;5116108;28;20463;-66
2022/05/02 12:41:01;;;;;;;13.80;9.43;;;19.90;39.70;;;;;;5116077;28;20119;-66
2022/05/02 12:43:40;;;;;;;13.60;9.27;;;19.80;40.60;;;;;;5116118;28;20028;-66
2022/05/02 12:46:10;;;;;;;14.70;10.50;;;19.90;40.30;;;;;;5115944;28;20030;-66
2022/05/02 12:48:41;;;;;;;13.65;9.95;;;19.80;38.80;;;;;;5115928;28;20499;-66
2022/05/02 12:51:15;;;;;;;15.05;10.70;;;19.90;39.60;;;;;;5115923;28;20025;-66
2022/05/02 12:56:25;;;;;;;14.73;10.63;;;19.80;39.30;;;;;;5115968;28;20043;-67
2022/05/02 13:01:50;;;;;;;15.00;9.98;;;19.60;38.70;;;;;;5055897;28;20033;-67
2022/05/02 13:04:18;;;;;;;15.23;10.63;;;19.60;37.70;;;;;;5115623;28;20428;-67
2022/05/02 13:06:45;;;;;;;15.10;10.27;;;19.40;37.40;;;;;;5115311;28;20016;-66
2022/05/02 13:09:15;;;;;;;17.65;10.20;;;19.40;38.90;;;;;;5115507;28;20035;-67
2022/05/02 13:11:43;;;;;;;16.10;9.80;;;19.60;39.80;;;;;;5115520;28;20016;-67
2022/05/02 13:14:23;;;;;;;15.68;10.02;;;19.90;40.10;;;;;;5115439;28;20499;-66
2022/05/02 13:16:49;;;;;;;16.95;9.95;;;20.00;39.40;;;;;;5115410;28;20016;-66
2022/05/02 13:19:15;;;;;;;14.55;10.27;;;20.20;39.80;;;;;;5115356;28;20498;-66
2022/05/02 13:21:42;;;;;;;15.35;10.27;;;20.20;40.60;;;;;;5097309;28;20035;-66
2022/05/02 13:24:10;;;;;;;15.25;10.15;;;20.20;39.40;;;;;;5115253;28;20020;-66
2022/05/02 13:26:53;;;;;;;14.93;10.20;;;20.20;39.10;;;;;;5115074;28;20165;-67
2022/05/02 13:29:40;;;;;;;14.48;9.77;;;20.20;39.30;;;;;;5115157;28;20080;-66
2022/05/02 13:32:11;;;;;;;14.98;10.05;;;20.30;38.90;;;;;;5114876;28;20064;-66
2022/05/02 13:34:40;;;;;;;15.52;10.40;;;20.40;38.90;;;;;;5115175;28;20028;-66
2022/05/02 13:37:14;;;;;;;13.80;10.52;;;20.60;39.50;;;;;;5114989;28;20032;-66